FSD weather

Joe Foss Field Airport
Sioux Falls, South Dakota, United States

Public forecast

Using degrees Fahrenheit for public forecast. Weather courtesy of forecast.io.

Current aviation weather report (METAR) for Joe Foss Field Airport

Retrieved 2019/12/15 09:56 UTC (21 minutes ago):

KFSD 150956Z AUTO 06003KT 10SM OVC044 M12/M17 A3003 RMK AO2 SLP201 T11171172

Aviation forecast (TAF) for Joe Foss Field Airport

Retrieved 2019/12/15 06:27 UTC (4 hours ago):

TAF KFSD 150523Z 1506/1606 VRB05KT P6SM BKN060 FM151400 00000KT P6SM OVC030 FM151900 18005KT P6SM BKN020 FM152100 18005KT P6SM BKN015